createdAt,value
2022-09-01T06:00:13.482Z,11.90
2022-09-01T06:02:42.885Z,12.06
2022-09-01T06:05:15.162Z,12.19
2022-09-01T06:07:42.927Z,12.19
2022-09-01T06:10:12.883Z,12.25
2022-09-01T06:12:40.730Z,12.46
2022-09-01T06:15:16.257Z,12.57
2022-09-01T06:17:50.081Z,12.52
2022-09-01T06:20:28.403Z,12.65
2022-09-01T06:23:04.800Z,12.78
2022-09-01T06:25:39.683Z,12.95
2022-09-01T06:28:28.290Z,13.02
2022-09-01T06:37:23.362Z,13.26
2022-09-01T06:39:57.073Z,13.28
2022-09-01T06:42:43.583Z,13.47
2022-09-01T06:45:14.351Z,13.44
2022-09-01T06:48:11.082Z,13.43
2022-09-01T06:53:45.027Z,13.83
2022-09-01T06:56:25.719Z,13.81
2022-09-01T06:59:06.258Z,14.03
2022-09-01T07:01:39.413Z,13.89
2022-09-01T07:07:53.072Z,13.84
2022-09-01T07:10:18.172Z,14.04
2022-09-01T07:13:06.625Z,14.16
2022-09-01T07:18:27.334Z,14.34
2022-09-01T07:21:38.780Z,14.26
2022-09-01T07:24:07.616Z,14.28
2022-09-01T07:26:35.292Z,14.35
2022-09-01T07:29:04.264Z,14.33
2022-09-01T07:34:41.933Z,14.65
2022-09-01T07:38:47.344Z,14.51
2022-09-01T07:42:31.115Z,13.90
2022-09-01T07:43:29.787Z,14.73
2022-09-01T07:51:59.793Z,15.15
2022-09-01T07:54:27.569Z,15.28
2022-09-01T07:56:56.123Z,15.24
2022-09-01T07:59:24.164Z,15.27
2022-09-01T08:02:05.744Z,15.21
2022-09-01T08:04:34.101Z,15.31
2022-09-01T08:07:01.767Z,15.24
2022-09-01T08:09:38.066Z,15.46
2022-09-01T08:12:11.494Z,15.63
2022-09-01T08:17:52.717Z,15.72
2022-09-01T08:20:22.217Z,15.76
2022-09-01T08:22:52.355Z,15.93
2022-09-01T08:25:25.178Z,15.94
2022-09-01T08:27:59.850Z,15.99
2022-09-01T08:30:27.854Z,15.99
2022-09-01T08:32:54.734Z,16.05
2022-09-01T08:35:21.937Z,16.23
2022-09-01T08:37:48.494Z,16.37
2022-09-01T08:40:18.814Z,16.10
2022-09-01T08:43:17.183Z,16.21
2022-09-01T08:46:10.266Z,16.37
2022-09-01T08:51:40.554Z,16.38
2022-09-01T08:54:29.334Z,16.53
2022-09-01T08:57:13.930Z,16.65
2022-09-01T08:59:59.322Z,16.53
2022-09-01T09:02:51.319Z,16.77
2022-09-01T09:05:28.371Z,16.78
2022-09-01T09:08:09.520Z,16.81
2022-09-01T09:10:43.641Z,17.07
2022-09-01T09:13:29.299Z,17.09
2022-09-01T09:16:09.461Z,16.94
2022-09-01T09:18:56.661Z,17.16
2022-09-01T09:21:30.032Z,17.26
2022-09-01T09:24:11.528Z,17.23
2022-09-01T09:26:45.228Z,17.48
2022-09-01T09:29:11.927Z,17.70
2022-09-01T09:31:45.916Z,17.71
2022-09-01T09:34:17.136Z,17.92
2022-09-01T09:36:52.340Z,17.95
2022-09-01T09:39:21.199Z,17.95
2022-09-01T09:42:10.544Z,18.08
2022-09-01T09:44:52.718Z,18.32
2022-09-01T09:47:43.909Z,18.11
2022-09-01T09:50:25.598Z,18.09
2022-09-01T09:53:11.179Z,18.17
2022-09-01T09:55:55.890Z,18.04
2022-09-01T09:58:26.582Z,18.36
2022-09-01T10:01:17.951Z,18.51
2022-09-01T10:03:50.977Z,18.52
2022-09-01T10:06:47.433Z,18.62
2022-09-01T10:09:15.919Z,18.66
2022-09-01T10:11:45.565Z,18.85
2022-09-01T10:14:49.836Z,19.08
2022-09-01T10:17:13.291Z,19.13
2022-09-01T10:19:54.180Z,19.26
2022-09-01T10:22:22.774Z,19.85
2022-09-01T10:24:50.476Z,20.48
2022-09-01T10:27:27.173Z,21.04
2022-09-01T10:33:03.450Z,21.87
2022-09-01T10:35:40.538Z,22.48
2022-09-01T10:38:09.103Z,23.15
2022-09-01T10:41:07.090Z,23.37
2022-09-01T10:43:40.206Z,23.47
2022-09-01T10:46:24.727Z,23.20
2022-09-01T10:48:56.603Z,23.80
2022-09-01T10:51:35.900Z,23.81
2022-09-01T10:54:06.698Z,24.45
2022-09-01T10:56:53.425Z,25.05
2022-09-01T10:59:33.700Z,25.17
2022-09-01T11:02:23.918Z,25.91
2022-09-01T11:04:55.750Z,25.98
2022-09-01T11:07:33.556Z,25.81
2022-09-01T11:10:34.750Z,26.62
2022-09-01T11:13:27.885Z,27.11
2022-09-01T11:15:55.462Z,26.83
2022-09-01T11:18:30.741Z,26.97
2022-09-01T11:21:26.519Z,27.55
2022-09-01T11:24:33.316Z,27.67
2022-09-01T11:27:00.032Z,27.17
2022-09-01T11:29:54.764Z,26.81
2022-09-01T11:32:27.728Z,26.82
2022-09-01T11:34:56.059Z,26.34
2022-09-01T11:37:27.527Z,26.74
2022-09-01T11:39:58.831Z,27.86
2022-09-01T11:42:37.406Z,28.43
2022-09-01T11:45:21.659Z,28.76
2022-09-01T11:47:52.862Z,28.89
2022-09-01T11:50:47.921Z,29.48
2022-09-01T11:53:21.555Z,29.95
2022-09-01T11:55:51.259Z,28.87
2022-09-01T11:58:31.476Z,29.25
2022-09-01T12:01:15.644Z,28.65
2022-09-01T12:03:43.197Z,27.09
2022-09-01T12:06:29.777Z,27.35
2022-09-01T12:09:03.807Z,28.43
2022-09-01T12:11:35.457Z,29.27
2022-09-01T12:14:07.731Z,29.97
2022-09-01T12:16:40.103Z,30.58
2022-09-01T12:19:06.948Z,30.45
2022-09-01T12:21:38.214Z,29.88
2022-09-01T12:24:23.477Z,28.31
2022-09-01T12:26:55.837Z,27.47
2022-09-01T12:29:23.296Z,26.59
2022-09-01T12:31:53.215Z,26.04
2022-09-01T12:34:42.056Z,27.61
2022-09-01T12:37:17.625Z,27.14
2022-09-01T12:39:49.854Z,27.87
2022-09-01T12:42:25.121Z,28.56
2022-09-01T12:45:06.301Z,29.21
2022-09-01T12:47:36.015Z,29.37
2022-09-01T12:50:16.304Z,29.07
2022-09-01T12:52:47.947Z,30.19
2022-09-01T12:58:09.185Z,30.88
2022-09-01T13:00:54.089Z,31.35
2022-09-01T13:03:21.634Z,32.04
2022-09-01T13:05:54.261Z,31.42
2022-09-01T13:08:27.099Z,29.79
2022-09-01T13:10:57.483Z,27.77
2022-09-01T13:13:25.958Z,28.25
2022-09-01T13:15:56.133Z,29.06
2022-09-01T13:18:24.381Z,29.19
2022-09-01T13:20:53.107Z,29.16
2022-09-01T13:23:20.591Z,29.18
2022-09-01T13:25:48.027Z,29.74
2022-09-01T13:28:17.749Z,30.18
2022-09-01T13:31:28.338Z,31.38
2022-09-01T13:36:44.218Z,32.54
2022-09-01T13:39:15.744Z,33.42
2022-09-01T13:41:42.922Z,33.70
2022-09-01T13:44:11.879Z,33.34
2022-09-01T13:46:59.031Z,32.96
2022-09-01T13:52:12.983Z,33.08
2022-09-01T13:54:40.660Z,32.31
2022-09-01T13:57:07.161Z,32.29
2022-09-01T13:59:33.717Z,32.52
2022-09-01T14:02:01.502Z,33.08
2022-09-01T14:04:28.158Z,33.22
2022-09-01T14:06:55.190Z,32.69
2022-09-01T14:09:22.289Z,32.01
2022-09-01T14:11:49.028Z,31.06
2022-09-01T14:14:15.523Z,29.83
2022-09-01T14:16:42.067Z,29.76
2022-09-01T14:19:09.100Z,30.60
2022-09-01T14:21:35.592Z,31.00
2022-09-01T14:24:02.377Z,31.73
2022-09-01T14:26:30.227Z,31.98
2022-09-01T14:28:57.983Z,31.88
2022-09-01T14:31:24.517Z,30.57
2022-09-01T14:33:51.156Z,29.55
2022-09-01T14:36:24.644Z,28.74
2022-09-01T14:38:52.650Z,27.72
2022-09-01T14:41:23.927Z,27.56
2022-09-01T14:44:02.297Z,28.24
2022-09-01T14:46:31.713Z,29.40
2022-09-01T14:48:58.267Z,29.97
2022-09-01T14:54:16.868Z,30.55
2022-09-01T14:57:28.473Z,29.68
2022-09-01T14:59:30.348Z,29.84
2022-09-01T15:01:57.139Z,29.90
2022-09-01T15:04:24.603Z,29.26
2022-09-01T15:06:51.195Z,29.26
2022-09-01T15:09:19.223Z,29.06
2022-09-01T15:11:46.830Z,28.73
2022-09-01T15:14:13.615Z,28.03
2022-09-01T15:16:41.496Z,27.51
2022-09-01T15:19:10.872Z,27.09
2022-09-01T15:21:38.926Z,26.71
2022-09-01T15:24:07.227Z,26.20
2022-09-01T15:26:34.466Z,26.13
2022-09-01T15:29:02.000Z,25.60
2022-09-01T15:31:33.152Z,25.69
2022-09-01T15:34:01.674Z,25.68
2022-09-01T15:36:30.612Z,25.84
2022-09-01T15:38:58.189Z,26.28
2022-09-01T15:41:28.263Z,26.26
2022-09-01T15:43:56.278Z,26.55
2022-09-01T15:46:30.966Z,25.74
2022-09-01T15:48:59.180Z,25.87
2022-09-01T15:51:30.166Z,25.62
2022-09-01T15:54:00.883Z,26.43
2022-09-01T15:56:28.106Z,26.81
2022-09-01T15:59:02.663Z,27.07
2022-09-01T16:01:32.756Z,26.83
2022-09-01T16:04:01.352Z,26.39
2022-09-01T16:06:28.397Z,26.10
2022-09-01T16:08:55.577Z,26.19
2022-09-01T16:11:23.591Z,26.36
2022-09-01T16:13:54.655Z,26.64
2022-09-01T16:16:21.223Z,26.69
2022-09-01T16:18:56.692Z,26.55
2022-09-01T16:21:41.499Z,26.15
2022-09-01T16:24:11.962Z,25.88
2022-09-01T16:26:39.749Z,25.80
2022-09-01T16:29:14.716Z,25.99
2022-09-01T16:31:42.290Z,25.67
2022-09-01T16:34:18.049Z,25.74
2022-09-01T16:37:04.545Z,25.44
2022-09-01T16:39:50.553Z,25.17
2022-09-01T16:42:41.518Z,25.21
2022-09-01T16:45:45.958Z,25.17
2022-09-01T16:48:30.800Z,24.98
2022-09-01T16:51:01.227Z,24.64
2022-09-01T16:54:01.487Z,24.82
2022-09-01T16:56:36.395Z,24.90
2022-09-01T16:59:13.472Z,24.72
2022-09-01T17:01:53.783Z,24.45
2022-09-01T17:04:29.807Z,24.22
2022-09-01T17:07:29.982Z,24.26
2022-09-01T17:09:56.468Z,24.22
2022-09-01T17:12:39.295Z,24.05
2022-09-01T17:15:12.818Z,24.01
2022-09-01T17:17:48.621Z,23.77
2022-09-01T17:20:25.078Z,23.61
2022-09-01T17:22:55.014Z,23.05
2022-09-01T17:25:29.805Z,22.87
2022-09-01T17:28:07.938Z,22.72
2022-09-01T17:30:44.667Z,22.88
2022-09-01T17:33:25.170Z,22.71
2022-09-01T17:36:00.987Z,22.52
2022-09-01T17:38:48.042Z,22.15
2022-09-01T17:41:43.581Z,22.02
2022-09-01T17:44:47.274Z,21.80
2022-09-01T17:47:43.423Z,21.56
2022-09-01T17:50:19.079Z,21.38
2022-09-01T17:52:55.315Z,21.37
2022-09-01T17:55:31.091Z,21.34
2022-09-01T17:58:04.956Z,21.16
2022-09-01T18:00:40.400Z,21.15
2022-09-01T18:03:14.774Z,21.01
2022-09-01T18:05:54.644Z,21.04
2022-09-01T18:08:44.427Z,21.00
2022-09-01T18:11:31.841Z,20.88
2022-09-01T18:14:16.287Z,20.69
2022-09-01T18:16:49.885Z,20.67
2022-09-01T18:19:19.793Z,20.61
2022-09-01T18:21:56.454Z,20.55
2022-09-01T18:24:32.428Z,20.46
2022-09-01T18:27:01.582Z,20.33
2022-09-01T18:29:29.725Z,20.24
2022-09-01T18:32:47.558Z,20.13
2022-09-01T18:35:26.824Z,20.03
2022-09-01T18:38:18.000Z,19.98
2022-09-01T18:41:12.987Z,19.86
2022-09-01T18:43:58.849Z,19.76
2022-09-01T18:46:39.166Z,19.69
2022-09-01T18:49:21.528Z,19.60
2022-09-01T18:52:06.520Z,19.47
2022-09-01T18:54:51.085Z,19.36
2022-09-01T18:57:21.535Z,19.24
2022-09-01T19:00:09.933Z,19.21
2022-09-01T19:02:57.231Z,19.10
2022-09-01T19:05:38.410Z,19.02
2022-09-01T19:08:19.228Z,18.97
2022-09-01T19:10:56.608Z,18.94
2022-09-01T19:13:33.809Z,18.83
2022-09-01T19:16:34.131Z,18.80
2022-09-01T19:19:18.461Z,18.64
2022-09-01T19:21:49.232Z,18.47
2022-09-01T19:24:35.443Z,18.44
2022-09-01T19:27:11.999Z,18.40
2022-09-01T19:29:52.435Z,18.37
2022-09-01T19:32:21.362Z,18.18
2022-09-01T19:34:53.283Z,18.00
2022-09-01T19:37:21.335Z,17.96
2022-09-01T19:39:53.792Z,17.94
2022-09-01T19:42:34.417Z,17.67
2022-09-01T19:45:09.519Z,17.66
2022-09-01T19:48:06.208Z,17.66
2022-09-01T19:51:03.306Z,17.60
2022-09-01T19:53:36.429Z,17.57
2022-09-01T19:56:15.783Z,17.50
2022-09-01T19:58:59.035Z,17.47
2022-09-01T20:01:40.133Z,17.45
2022-09-01T20:04:20.409Z,17.40
2022-09-01T20:06:53.310Z,17.35
2022-09-01T20:09:53.897Z,17.31
2022-09-01T20:12:40.045Z,17.29
2022-09-01T20:15:17.839Z,17.30
2022-09-01T20:17:57.823Z,17.26
2022-09-01T20:20:45.853Z,17.26
2022-09-01T20:23:36.761Z,17.16
2022-09-01T20:26:12.821Z,17.14
2022-09-01T20:29:08.087Z,17.06
2022-09-01T20:31:50.330Z,17.05
2022-09-01T20:34:48.517Z,17.06
2022-09-01T20:37:27.209Z,17.10
2022-09-01T20:40:22.664Z,17.08
2022-09-01T20:43:11.194Z,17.01
2022-09-01T20:45:38.899Z,16.94
2022-09-01T20:48:14.303Z,17.00
2022-09-01T20:50:54.800Z,17.02
2022-09-01T20:53:49.673Z,17.02
2022-09-01T20:56:43.167Z,16.98
2022-09-01T20:59:16.583Z,16.81
2022-09-01T21:02:11.408Z,16.86
2022-09-01T21:13:12.195Z,16.63
2022-09-01T21:16:14.969Z,16.60
2022-09-01T21:19:10.793Z,16.68
2022-09-01T21:21:58.985Z,16.67
2022-09-01T21:24:26.285Z,16.53
2022-09-01T21:26:56.603Z,16.57
2022-09-01T21:29:38.397Z,16.53
2022-09-01T21:32:05.135Z,16.43
2022-09-01T21:34:31.989Z,16.46
2022-09-01T21:50:43.887Z,16.17
2022-09-01T21:53:11.772Z,16.15
2022-09-01T21:55:38.320Z,16.11
2022-09-01T21:58:04.837Z,15.96
